createdAt,value
2017-12-03T00:01:51.808Z,68.60
2017-12-03T00:04:20.054Z,69.70
2017-12-03T00:06:48.546Z,70.20
2017-12-03T00:09:17.549Z,69.40
2017-12-03T00:11:45.797Z,69.40
2017-12-03T00:14:18.014Z,69.40
2017-12-03T00:16:46.266Z,69.60
2017-12-03T00:19:14.518Z,70.00
2017-12-03T00:21:43.834Z,71.00
2017-12-03T00:24:12.845Z,69.60
2017-12-03T00:26:41.093Z,69.60
2017-12-03T00:29:10.130Z,71.10
2017-12-03T00:31:38.374Z,70.90
2017-12-03T00:34:06.624Z,71.00
2017-12-03T00:36:34.894Z,68.90
2017-12-03T00:39:03.149Z,66.80
2017-12-03T00:41:31.389Z,65.60
2017-12-03T00:43:59.858Z,66.70
2017-12-03T00:46:28.106Z,67.50
2017-12-03T00:48:56.350Z,64.00
2017-12-03T00:51:24.915Z,62.80
2017-12-03T00:53:53.162Z,65.20
2017-12-03T00:56:21.410Z,67.10
2017-12-03T00:58:49.686Z,67.50
2017-12-03T01:01:17.940Z,65.10
2017-12-03T01:03:46.186Z,66.20
2017-12-03T01:06:14.631Z,67.30
2017-12-03T01:08:42.864Z,66.40
2017-12-03T01:11:11.114Z,67.10
2017-12-03T01:13:39.384Z,64.30
2017-12-03T01:16:08.398Z,63.70
2017-12-03T01:18:36.653Z,63.40
2017-12-03T01:21:04.926Z,63.80
2017-12-03T01:23:33.942Z,62.10
2017-12-03T01:26:02.190Z,62.20
2017-12-03T01:28:32.155Z,61.50
2017-12-03T01:31:00.403Z,61.50
2017-12-03T01:33:28.648Z,62.20
2017-12-03T01:35:56.924Z,62.50
2017-12-03T01:38:25.162Z,62.20
2017-12-03T01:40:53.426Z,63.70
2017-12-03T01:43:21.773Z,64.10
2017-12-03T01:45:51.958Z,64.10
2017-12-03T01:48:20.197Z,64.00
2017-12-03T01:50:48.797Z,64.90
2017-12-03T01:53:17.441Z,62.60
2017-12-03T01:55:46.456Z,61.40
2017-12-03T01:58:14.718Z,61.40
2017-12-03T02:00:42.974Z,63.70
2017-12-03T02:03:11.226Z,63.10
2017-12-03T02:05:39.490Z,61.90
2017-12-03T02:08:08.506Z,62.20
2017-12-03T02:10:36.750Z,62.20
2017-12-03T02:13:05.451Z,61.60
2017-12-03T02:15:33.682Z,62.90
2017-12-03T02:18:01.926Z,59.70
2017-12-03T02:20:30.190Z,59.40
2017-12-03T02:22:58.430Z,59.20
2017-12-03T02:25:26.684Z,58.10
2017-12-03T02:27:55.718Z,58.00
2017-12-03T02:30:23.962Z,58.00
2017-12-03T02:32:52.208Z,59.10
2017-12-03T02:35:20.706Z,58.10
2017-12-03T02:37:48.958Z,57.70
2017-12-03T02:40:17.202Z,58.20
2017-12-03T02:42:45.476Z,58.10
2017-12-03T02:45:13.726Z,59.00
2017-12-03T02:47:42.734Z,58.10
2017-12-03T02:50:11.002Z,58.10
2017-12-03T02:52:39.241Z,57.60
2017-12-03T02:55:07.606Z,57.40
2017-12-03T02:57:35.958Z,57.90
2017-12-03T03:00:04.203Z,57.90
2017-12-03T03:02:32.442Z,57.60
2017-12-03T03:05:00.718Z,57.10
2017-12-03T03:07:28.967Z,56.80
2017-12-03T03:09:57.213Z,55.90
2017-12-03T03:12:25.478Z,56.80
2017-12-03T03:14:53.726Z,58.10
2017-12-03T03:17:21.965Z,58.00
2017-12-03T03:19:50.762Z,58.30
2017-12-03T03:22:19.018Z,56.70
2017-12-03T03:24:47.268Z,56.70
2017-12-03T03:27:16.813Z,57.20
2017-12-03T03:29:45.057Z,57.20
2017-12-03T03:32:13.302Z,57.50
2017-12-03T03:34:41.574Z,57.60
2017-12-03T03:37:09.818Z,57.40
2017-12-03T03:39:38.062Z,57.40
2017-12-03T03:42:07.402Z,57.40
2017-12-03T03:44:35.661Z,57.40
2017-12-03T03:47:03.910Z,57.20
2017-12-03T03:49:32.956Z,57.50
2017-12-03T03:52:01.202Z,57.50
2017-12-03T03:54:29.454Z,56.30
2017-12-03T03:56:57.966Z,56.40
2017-12-03T03:59:26.205Z,56.00
2017-12-03T04:01:54.460Z,56.20
2017-12-03T04:04:23.131Z,55.80
2017-12-03T04:06:52.242Z,55.90
2017-12-03T04:09:20.502Z,56.10
2017-12-03T04:11:48.770Z,56.50
2017-12-03T04:14:17.202Z,56.00
2017-12-03T04:16:46.214Z,56.50
2017-12-03T04:19:14.486Z,56.40
2017-12-03T04:21:42.734Z,56.00
2017-12-03T04:24:10.973Z,55.70
2017-12-03T04:26:39.773Z,55.60
2017-12-03T04:29:08.014Z,55.70
2017-12-03T04:31:36.265Z,55.80
2017-12-03T04:34:04.542Z,56.10
2017-12-03T04:36:33.574Z,56.50
2017-12-03T04:39:01.818Z,56.40
2017-12-03T04:41:30.089Z,56.40
2017-12-03T04:43:58.331Z,56.40
2017-12-03T04:46:26.575Z,56.10
2017-12-03T04:48:55.137Z,56.20
2017-12-03T04:51:24.150Z,56.00
2017-12-03T04:53:52.398Z,56.00
2017-12-03T04:56:20.662Z,56.30
2017-12-03T04:58:49.265Z,56.70
2017-12-03T05:01:18.278Z,56.50
2017-12-03T05:03:46.553Z,56.50
2017-12-03T05:06:14.814Z,56.80
2017-12-03T05:08:43.826Z,56.60
2017-12-03T05:11:12.430Z,56.60
2017-12-03T05:13:40.673Z,56.60
2017-12-03T05:16:08.915Z,56.50
2017-12-03T05:18:37.197Z,56.70
2017-12-03T05:21:05.441Z,57.10
2017-12-03T05:23:33.691Z,57.40
2017-12-03T05:26:01.966Z,57.40
2017-12-03T05:28:30.218Z,58.00
2017-12-03T05:30:59.227Z,57.50
2017-12-03T05:33:27.676Z,57.50
2017-12-03T05:35:57.421Z,57.80
2017-12-03T05:38:25.670Z,57.70
2017-12-03T05:40:53.942Z,57.60
2017-12-03T05:43:22.183Z,57.90
2017-12-03T05:45:50.437Z,58.30
2017-12-03T05:48:19.046Z,58.70
2017-12-03T05:50:47.294Z,58.00
2017-12-03T05:53:15.534Z,59.20
2017-12-03T05:55:44.177Z,58.80
2017-12-03T05:58:12.417Z,57.30
2017-12-03T06:00:40.998Z,57.00
2017-12-03T06:03:09.274Z,57.00
2017-12-03T06:05:38.290Z,57.20
2017-12-03T06:08:06.546Z,57.10
2017-12-03T06:10:34.810Z,56.80
2017-12-03T06:13:03.054Z,56.90
2017-12-03T06:15:31.437Z,56.60
2017-12-03T06:17:59.851Z,56.60
2017-12-03T06:20:28.863Z,56.30
2017-12-03T06:22:57.122Z,56.20
2017-12-03T06:25:25.387Z,56.50
2017-12-03T06:27:53.632Z,55.90
2017-12-03T06:30:21.869Z,56.00
2017-12-03T06:32:50.139Z,56.50
2017-12-03T06:35:18.381Z,57.20
2017-12-03T06:37:46.629Z,57.40
2017-12-03T06:40:15.309Z,57.10
2017-12-03T06:42:43.550Z,57.70
2017-12-03T06:45:11.798Z,57.50
2017-12-03T06:47:40.070Z,57.00
2017-12-03T06:50:08.319Z,56.90
2017-12-03T06:52:36.578Z,57.40
2017-12-03T06:55:04.854Z,57.50
2017-12-03T06:57:33.114Z,57.30
2017-12-03T07:00:01.354Z,57.10
2017-12-03T07:02:30.422Z,56.80
2017-12-03T07:04:58.674Z,56.90
2017-12-03T07:07:26.910Z,57.10
2017-12-03T07:09:55.182Z,57.00
2017-12-03T07:12:23.427Z,57.20
2017-12-03T07:14:51.682Z,56.70
2017-12-03T07:17:19.958Z,56.90
2017-12-03T07:19:48.206Z,57.60
2017-12-03T07:22:17.214Z,57.10
2017-12-03T07:24:45.834Z,57.10
2017-12-03T07:27:14.092Z,56.60
2017-12-03T07:29:42.333Z,57.30
2017-12-03T07:32:11.370Z,56.60
2017-12-03T07:34:39.613Z,56.60
2017-12-03T07:37:08.634Z,57.20
2017-12-03T07:39:36.905Z,57.20
2017-12-03T07:42:05.157Z,57.20
2017-12-03T07:44:35.136Z,57.20
2017-12-03T07:47:04.305Z,57.10
2017-12-03T07:49:32.542Z,56.70
2017-12-03T07:52:00.788Z,56.80
2017-12-03T07:54:29.060Z,57.10
2017-12-03T07:56:57.304Z,57.00
2017-12-03T07:59:25.553Z,57.00
2017-12-03T08:01:54.590Z,56.00
2017-12-03T08:04:23.553Z,56.00
2017-12-03T08:06:51.915Z,56.40
2017-12-03T08:09:21.022Z,56.70
2017-12-03T08:11:49.270Z,56.70
2017-12-03T08:14:17.514Z,56.50
2017-12-03T08:16:45.794Z,56.30
2017-12-03T08:19:14.097Z,56.60
2017-12-03T08:21:42.342Z,56.80
2017-12-03T08:24:10.886Z,56.60
2017-12-03T08:26:39.913Z,56.40
2017-12-03T08:29:08.187Z,56.40
2017-12-03T08:31:36.685Z,56.30
2017-12-03T08:34:04.937Z,56.60
2017-12-03T08:36:33.187Z,56.50
2017-12-03T08:39:01.463Z,57.40
2017-12-03T08:41:30.503Z,57.10
2017-12-03T08:43:58.745Z,57.00
2017-12-03T08:46:27.006Z,57.50
2017-12-03T08:48:56.182Z,57.40
2017-12-03T08:51:24.427Z,58.00
2017-12-03T08:53:52.869Z,57.50
2017-12-03T08:56:21.118Z,58.00
2017-12-03T08:58:49.374Z,58.60
2017-12-03T09:01:17.642Z,58.40
2017-12-03T09:03:45.890Z,58.50
2017-12-03T09:06:18.549Z,58.80
2017-12-03T09:08:47.575Z,58.60
2017-12-03T09:11:15.817Z,58.70
2017-12-03T09:13:44.223Z,58.80
2017-12-03T09:16:12.495Z,58.90
2017-12-03T09:18:40.742Z,58.90
2017-12-03T09:21:09.005Z,59.30
2017-12-03T09:23:38.774Z,59.90
2017-12-03T09:26:07.021Z,59.80
2017-12-03T09:28:35.285Z,60.60
2017-12-03T09:31:03.535Z,61.20
2017-12-03T09:33:31.778Z,61.10
2017-12-03T09:36:00.377Z,61.00
2017-12-03T09:38:28.631Z,61.70
2017-12-03T09:40:56.882Z,62.60
2017-12-03T09:43:25.193Z,62.40
2017-12-03T09:45:53.440Z,62.50
2017-12-03T09:48:21.689Z,63.30
2017-12-03T09:50:49.954Z,62.40
2017-12-03T09:53:18.202Z,61.10
2017-12-03T09:55:46.438Z,61.90
2017-12-03T09:58:15.850Z,63.20
2017-12-03T10:00:44.853Z,63.20
2017-12-03T10:03:13.102Z,63.10
2017-12-03T10:05:41.379Z,62.60
2017-12-03T10:08:09.906Z,64.20
2017-12-03T10:10:38.154Z,64.90
2017-12-03T10:13:06.423Z,66.00
2017-12-03T10:15:34.677Z,64.70
2017-12-03T10:18:02.926Z,64.60
2017-12-03T10:20:31.242Z,65.30
2017-12-03T10:22:59.499Z,67.50
2017-12-03T10:25:27.738Z,67.10
2017-12-03T10:27:56.013Z,66.90
2017-12-03T10:30:24.262Z,66.20
2017-12-03T10:32:52.510Z,66.70
2017-12-03T10:35:20.797Z,66.80
2017-12-03T10:38:00.834Z,66.70
2017-12-03T10:40:29.606Z,66.40
2017-12-03T10:42:57.849Z,67.80
2017-12-03T10:45:26.094Z,67.00
2017-12-03T10:47:54.363Z,67.90
2017-12-03T10:50:22.610Z,67.80
2017-12-03T10:52:50.870Z,68.10
2017-12-03T10:55:19.141Z,67.60
2017-12-03T10:57:47.386Z,67.10
2017-12-03T11:00:15.780Z,66.40
2017-12-03T11:02:44.430Z,66.40
2017-12-03T11:05:12.689Z,67.00
2017-12-03T11:07:40.929Z,66.90
2017-12-03T11:10:10.274Z,66.90
2017-12-03T11:12:38.512Z,66.90
2017-12-03T11:15:06.758Z,65.60
2017-12-03T11:17:35.046Z,64.10
2017-12-03T11:20:03.294Z,64.40
2017-12-03T11:22:31.559Z,64.40
2017-12-03T11:25:00.049Z,64.20
2017-12-03T11:27:28.432Z,65.90
2017-12-03T11:29:56.670Z,65.50
2017-12-03T11:32:24.942Z,65.60
2017-12-03T11:34:53.185Z,67.30
2017-12-03T11:37:21.439Z,66.60
2017-12-03T11:39:49.707Z,64.60
2017-12-03T11:42:17.957Z,65.20
2017-12-03T11:44:46.210Z,64.90
2017-12-03T11:47:14.866Z,65.80
2017-12-03T11:49:43.878Z,66.60
2017-12-03T11:52:12.891Z,67.30
2017-12-03T11:54:41.166Z,67.20
2017-12-03T11:57:09.418Z,66.50
2017-12-03T11:59:38.430Z,68.20
2017-12-03T12:02:06.698Z,68.20
2017-12-03T12:04:34.961Z,68.30
2017-12-03T12:07:03.226Z,66.50
2017-12-03T12:09:31.869Z,66.40
2017-12-03T12:12:00.122Z,68.00
2017-12-03T12:14:28.373Z,68.20
2017-12-03T12:16:57.637Z,69.00
2017-12-03T12:19:25.882Z,68.90
2017-12-03T12:21:54.126Z,70.60
2017-12-03T12:24:22.410Z,69.90
2017-12-03T12:26:51.438Z,68.00
2017-12-03T12:29:19.701Z,68.10
2017-12-03T12:31:48.026Z,68.50
2017-12-03T12:34:16.306Z,69.90
2017-12-03T12:36:44.549Z,70.10
2017-12-03T12:39:12.987Z,69.90
2017-12-03T12:41:41.994Z,69.80
2017-12-03T12:44:11.018Z,70.30
2017-12-03T12:46:39.291Z,70.20
2017-12-03T12:49:07.544Z,71.10
2017-12-03T12:51:35.802Z,71.00
2017-12-03T12:54:05.394Z,70.20
2017-12-03T12:56:36.840Z,72.10
2017-12-03T12:59:05.082Z,71.10
2017-12-03T13:01:33.362Z,71.10
2017-12-03T13:04:01.690Z,71.50
2017-12-03T13:06:29.935Z,72.20
2017-12-03T13:08:58.246Z,74.30
2017-12-03T13:11:26.486Z,73.60
2017-12-03T13:13:54.884Z,74.30
2017-12-03T13:16:23.342Z,74.80
2017-12-03T13:18:51.631Z,75.30
2017-12-03T13:21:19.865Z,76.50
2017-12-03T13:23:48.141Z,75.80
2017-12-03T13:26:16.386Z,75.00
2017-12-03T13:28:44.638Z,75.00
2017-12-03T13:31:16.945Z,74.70
2017-12-03T13:33:46.018Z,73.90
2017-12-03T13:36:15.211Z,73.90
2017-12-03T13:38:43.966Z,74.60
2017-12-03T13:41:12.233Z,74.50
2017-12-03T13:43:40.662Z,76.80
2017-12-03T13:46:08.942Z,74.40
2017-12-03T13:48:37.410Z,73.80
2017-12-03T13:51:05.676Z,73.40
2017-12-03T13:53:34.256Z,72.80
2017-12-03T13:56:02.550Z,73.20
2017-12-03T13:58:30.822Z,73.30
2017-12-03T14:00:59.150Z,73.30
2017-12-03T14:03:27.522Z,74.40
2017-12-03T14:05:55.769Z,74.80
2017-12-03T14:08:24.066Z,73.90
2017-12-03T14:10:52.545Z,73.90
2017-12-03T14:13:21.604Z,75.50
2017-12-03T14:15:49.875Z,75.40
2017-12-03T14:18:18.294Z,75.00
2017-12-03T14:20:47.355Z,75.90
2017-12-03T14:23:15.683Z,75.80
2017-12-03T14:25:43.949Z,76.60
2017-12-03T14:28:12.190Z,77.00
2017-12-03T14:30:40.465Z,76.90
2017-12-03T14:33:08.710Z,77.70
2017-12-03T14:35:36.975Z,77.00
2017-12-03T14:38:05.242Z,78.80
2017-12-03T14:40:33.491Z,77.90
2017-12-03T14:43:01.739Z,76.60
2017-12-03T14:45:30.153Z,76.90
2017-12-03T14:47:59.174Z,77.30
2017-12-03T14:50:27.430Z,77.20
2017-12-03T14:52:55.769Z,76.80
2017-12-03T14:55:30.112Z,76.60
2017-12-03T14:57:58.377Z,77.60
2017-12-03T15:00:26.744Z,77.00
2017-12-03T15:02:54.983Z,77.50
2017-12-03T15:05:23.404Z,76.60
2017-12-03T15:07:51.641Z,75.30
2017-12-03T15:10:20.374Z,74.40
2017-12-03T15:12:48.695Z,75.20
2017-12-03T15:15:17.326Z,73.90
2017-12-03T15:17:45.562Z,75.20
2017-12-03T15:20:16.016Z,76.30
2017-12-03T15:22:44.610Z,76.70
2017-12-03T15:25:13.106Z,77.50
2017-12-03T15:27:43.908Z,78.80
2017-12-03T15:30:12.330Z,77.80
2017-12-03T15:32:45.690Z,76.50
2017-12-03T15:35:13.946Z,76.30
2017-12-03T15:37:42.238Z,77.80
2017-12-03T15:40:10.510Z,77.30
2017-12-03T15:42:39.764Z,78.10
2017-12-03T15:45:08.015Z,76.90
2017-12-03T15:47:37.509Z,74.80
2017-12-03T15:50:05.820Z,74.20
2017-12-03T15:52:34.202Z,74.10
2017-12-03T15:55:02.482Z,74.10
2017-12-03T15:57:31.007Z,74.90
2017-12-03T16:00:00.012Z,73.10
2017-12-03T16:02:28.306Z,73.00
2017-12-03T16:04:56.695Z,73.90
2017-12-03T16:07:25.083Z,76.40
2017-12-03T16:09:53.417Z,75.00
2017-12-03T16:12:21.696Z,74.10
2017-12-03T16:14:49.948Z,75.10
2017-12-03T16:17:18.321Z,74.00
2017-12-03T16:19:47.338Z,75.90
2017-12-03T16:22:15.590Z,75.90
2017-12-03T16:24:43.933Z,75.00
2017-12-03T16:27:12.161Z,75.00
2017-12-03T16:29:40.515Z,77.90
2017-12-03T16:32:09.986Z,76.40
2017-12-03T16:34:38.249Z,76.30
2017-12-03T16:37:07.474Z,78.90
2017-12-03T16:39:35.878Z,77.20
2017-12-03T16:42:06.071Z,77.90
2017-12-03T16:44:34.318Z,77.80
2017-12-03T16:47:02.926Z,77.40
2017-12-03T16:49:31.257Z,77.60
2017-12-03T16:52:00.261Z,76.90
2017-12-03T16:54:28.662Z,76.80
2017-12-03T16:56:56.918Z,77.50
2017-12-03T16:59:25.237Z,76.90
2017-12-03T17:01:53.491Z,77.10
2017-12-03T17:04:22.778Z,78.40
2017-12-03T17:06:52.094Z,77.90
2017-12-03T17:09:20.460Z,77.50
2017-12-03T17:11:48.774Z,77.20
2017-12-03T17:14:18.086Z,76.80
2017-12-03T17:16:47.473Z,75.30
2017-12-03T17:19:15.757Z,76.00
2017-12-03T17:21:44.138Z,76.20
2017-12-03T17:24:13.476Z,76.50
2017-12-03T17:26:45.819Z,79.10
2017-12-03T17:29:14.217Z,80.90
2017-12-03T17:31:43.240Z,81.40
2017-12-03T17:34:14.046Z,81.40
2017-12-03T17:36:43.196Z,78.50
2017-12-03T17:39:13.552Z,79.30
2017-12-03T17:41:41.950Z,79.60
2017-12-03T17:44:10.634Z,78.70
2017-12-03T17:46:39.830Z,79.00
2017-12-03T17:49:08.086Z,78.90
2017-12-03T17:51:36.360Z,78.40
2017-12-03T17:54:04.606Z,78.60
2017-12-03T17:56:34.144Z,78.80
2017-12-03T17:59:04.042Z,79.00
2017-12-03T18:01:34.174Z,80.30
2017-12-03T18:04:02.554Z,80.00
2017-12-03T18:06:30.981Z,80.70
2017-12-03T18:08:59.240Z,79.30
2017-12-03T18:11:27.698Z,79.80
2017-12-03T18:14:00.532Z,78.70
2017-12-03T18:16:29.982Z,77.80
2017-12-03T18:18:58.542Z,79.50
2017-12-03T18:21:27.304Z,79.80
2017-12-03T18:23:55.733Z,80.80
2017-12-03T18:26:25.038Z,80.90
2017-12-03T18:28:53.334Z,80.00
2017-12-03T18:31:21.820Z,81.60
2017-12-03T18:33:50.826Z,82.70
2017-12-03T18:36:19.874Z,82.70
2017-12-03T18:38:48.126Z,82.80
2017-12-03T18:41:16.550Z,83.60
2017-12-03T18:43:44.903Z,85.30
2017-12-03T18:46:13.139Z,84.30
2017-12-03T18:48:41.395Z,84.10
2017-12-03T18:51:10.703Z,84.60
2017-12-03T18:53:39.713Z,85.00
2017-12-03T18:56:08.046Z,85.00
2017-12-03T18:58:36.478Z,85.70
2017-12-03T19:01:04.725Z,83.30
2017-12-03T19:03:32.985Z,81.70
2017-12-03T19:06:01.395Z,81.10
2017-12-03T19:08:31.040Z,82.80
2017-12-03T19:10:59.290Z,83.10
2017-12-03T19:13:27.569Z,82.90
2017-12-03T19:15:55.818Z,82.80
2017-12-03T19:18:24.870Z,83.60
2017-12-03T19:20:53.146Z,83.50
2017-12-03T19:23:21.393Z,83.00
2017-12-03T19:25:49.821Z,82.30
2017-12-03T19:28:18.294Z,81.10
2017-12-03T19:30:46.579Z,79.80
2017-12-03T19:33:15.770Z,81.20
2017-12-03T19:35:45.226Z,81.20
2017-12-03T19:38:15.410Z,81.00
2017-12-03T19:40:43.787Z,81.00
2017-12-03T19:43:12.201Z,81.70
2017-12-03T19:45:40.458Z,81.20
2017-12-03T19:48:08.713Z,81.50
2017-12-03T19:50:37.370Z,80.60
2017-12-03T19:53:05.618Z,79.80
2017-12-03T19:55:34.058Z,79.40
2017-12-03T19:58:02.831Z,79.10
2017-12-03T20:00:32.045Z,80.10
2017-12-03T20:03:00.618Z,80.10
2017-12-03T20:05:29.134Z,79.30
2017-12-03T20:07:58.159Z,79.00
2017-12-03T20:10:29.563Z,79.00
2017-12-03T20:12:58.024Z,79.30
2017-12-03T20:15:26.313Z,80.30
2017-12-03T20:17:54.578Z,80.70
2017-12-03T20:20:23.615Z,80.30
2017-12-03T20:22:52.213Z,80.30
2017-12-03T20:25:20.464Z,80.70
2017-12-03T20:27:48.726Z,80.90
2017-12-03T20:30:18.494Z,80.30
2017-12-03T20:32:46.810Z,80.20
2017-12-03T20:35:15.262Z,81.00
2017-12-03T20:37:43.515Z,82.60
2017-12-03T20:40:11.950Z,81.10
2017-12-03T20:42:40.222Z,81.30
2017-12-03T20:45:08.473Z,81.00
2017-12-03T20:47:36.777Z,81.20
2017-12-03T20:50:05.058Z,80.70
2017-12-03T20:52:33.306Z,82.10
2017-12-03T20:55:01.562Z,81.50
2017-12-03T20:57:30.170Z,81.90
2017-12-03T20:59:59.608Z,83.60
2017-12-03T21:02:27.849Z,83.60
2017-12-03T21:04:56.132Z,83.10
2017-12-03T21:07:24.372Z,82.70
2017-12-03T21:09:52.613Z,82.90
2017-12-03T21:12:20.890Z,82.90
2017-12-03T21:14:49.130Z,82.20
2017-12-03T21:17:18.559Z,82.50
2017-12-03T21:19:46.914Z,81.80
2017-12-03T21:22:15.450Z,83.00
2017-12-03T21:24:43.697Z,84.00
2017-12-03T21:27:11.970Z,82.80
2017-12-03T21:29:40.234Z,84.70
2017-12-03T21:32:08.470Z,84.90
2017-12-03T21:34:36.738Z,85.80
2017-12-03T21:37:05.750Z,85.40
2017-12-03T21:39:33.998Z,85.30
2017-12-03T21:42:03.170Z,83.90
2017-12-03T21:44:31.413Z,83.90
2017-12-03T21:46:59.662Z,85.00
2017-12-03T21:49:28.122Z,84.20
2017-12-03T21:51:57.134Z,81.40
2017-12-03T21:54:25.387Z,81.40
2017-12-03T21:56:53.657Z,81.40
2017-12-03T21:59:21.902Z,83.20
2017-12-03T22:01:50.158Z,82.90
2017-12-03T22:04:18.605Z,83.70
2017-12-03T22:06:46.858Z,84.10
2017-12-03T22:09:15.102Z,84.10
2017-12-03T22:11:43.370Z,83.20
2017-12-03T22:14:11.622Z,84.70
2017-12-03T22:16:40.638Z,85.00
2017-12-03T22:19:08.945Z,85.00
2017-12-03T22:21:37.179Z,86.00
2017-12-03T22:24:05.746Z,85.80
2017-12-03T22:26:35.214Z,84.70
2017-12-03T22:29:03.462Z,84.60
2017-12-03T22:31:31.707Z,83.70
2017-12-03T22:33:59.978Z,83.90
2017-12-03T22:36:28.230Z,84.00
2017-12-03T22:38:57.525Z,83.50
2017-12-03T22:41:25.795Z,84.80
2017-12-03T22:43:54.048Z,84.40
2017-12-03T22:46:22.290Z,83.80
2017-12-03T22:48:50.763Z,84.90
2017-12-03T22:51:19.770Z,84.40
2017-12-03T22:53:48.781Z,84.20
2017-12-03T22:56:17.060Z,84.10
2017-12-03T22:58:45.308Z,85.10
2017-12-03T23:01:14.321Z,84.90
2017-12-03T23:03:42.587Z,84.90
2017-12-03T23:06:11.602Z,85.50
2017-12-03T23:08:39.847Z,85.40
2017-12-03T23:11:08.375Z,86.50
2017-12-03T23:13:36.617Z,86.60
2017-12-03T23:16:05.057Z,87.60
2017-12-03T23:18:33.328Z,86.70
2017-12-03T23:21:01.567Z,87.10
2017-12-03T23:23:29.816Z,86.70
2017-12-03T23:25:58.318Z,87.50
2017-12-03T23:28:27.447Z,86.80
2017-12-03T23:30:55.682Z,86.80
2017-12-03T23:33:24.891Z,88.30
2017-12-03T23:35:53.138Z,88.20
2017-12-03T23:38:21.380Z,86.90
2017-12-03T23:40:49.656Z,86.60
2017-12-03T23:43:17.897Z,87.70
2017-12-03T23:45:46.150Z,87.50
2017-12-03T23:48:15.177Z,85.80
2017-12-03T23:50:43.422Z,85.70
2017-12-03T23:53:11.662Z,85.00
2017-12-03T23:55:40.121Z,85.70
2017-12-03T23:58:08.358Z,86.20
